Aurora, Ohio
Current Conditions -  °F | °C
As of 2:00 AM on Sunday 23 Nov 2014 (Local Time) from KPOV Reporting Station
Overcast Overcast  
Wind Chill: 47°   Ceiling: 3900
Heat Index: 47°   Visibility: 10mi
Dew Point: 30°   Wind: 3mph
Humidity: 52%   Direction: 220°SW
Pressure: 30.04"   Gusts: NA
Location:  41.31°N, 81.34°W
Report Text: KPOV 230700Z AUTO 22003KT 10SM OVC039 08/M01 A3004 RMK AO2 T00821012
Loading
Personal Weather Stations






























Interactive Weather Map New forecast layout! Learn more

10-Day Weather Forecast

Advertisements
Track Severe Weather on mobile